Aérodrome :
LOGIN :

S'inscrire | Disclaimer

   EN    FR    IT 

 










Légende :    VFR   VFR Marginal   IFR   IFR Intensif   IFR Très Intensif
Visi : 
Plafond : 
>= 8 km
>= 3000ft
5 à 8 km
1000 à 3000 ft
1500m à 5 km
500 à 1000 ft
800 à 1500m
200 à 500 ft
< 800m
< 200 ft
Symboles :   Orages  Brouillard  Fortes neiges  Fortes précipitations  Vent > 20 kt
SIGMETs :   Divers  Orages  Givrage  Turbulence  Onde Orograph.  Cendres Volcan.







- Altitude de l'aérodrome : 266 ft
- Code IATA : NCL
- Voir les cartes d'approche


EGNT - Newcastle

DERNIER METAR :
  • 292050Z 17004KT 120V190 CAVOK 10/02 Q1011

METARs EXPIRÉS :
  • 292020Z 17005KT 120V210 CAVOK 10/02 Q1011
  • 291950Z 17006KT 110V220 CAVOK 10/02 Q1011
  • 291920Z 17007KT 130V210 CAVOK 10/03 Q1011
  • 291850Z 17006KT 110V200 9999 FEW040 11/05 Q1011
  • 291820Z 17006KT 110V230 9999 FEW040 11/05 Q1011

TAF TAF EGNT
Valide du 29 à 18h jusqu'au 30 à 18h UTC


291700Z 2918/3018 13007KT 9999 SCT030
ATIS : +44 191 214 3400
Pas de NOTAMs connus pour ce terrain.



MET'MAP, la Météo Aéronautique d'un coup d'oeil ! - Copyright ORBIFLY Décembre 2007 - Disclaimer

ORBIFLY MET'MAP TEAM :

Programmation & Développement : Alexandra Zaïnal
Conception & Développement : Baudouin d'Aumeries
Co-Programmation & Développement : Marc-Olivier Méhu
Soutien technique & logistique : Manuel Goepfert

Contact : metmap@orbifly.com




SOURCES & CREDITS :

   NOAA